sensor_id;sensor_type;location;lat;lon;timestamp;P1;durP1;ratioP1;P2;durP2;ratioP2
81934;SDS011;71405;47.674;-2.050;2023-07-31T00:01:45;6.53;;;4.20;;
81934;SDS011;71405;47.674;-2.050;2023-07-31T00:04:11;7.47;;;4.50;;
81934;SDS011;71405;47.674;-2.050;2023-07-31T00:06:36;6.35;;;4.40;;
81934;SDS011;71405;47.674;-2.050;2023-07-31T00:09:02;6.60;;;4.32;;
81934;SDS011;71405;47.674;-2.050;2023-07-31T00:11:28;6.50;;;3.90;;
81934;SDS011;71405;47.674;-2.050;2023-07-31T00:13:53;6.55;;;4.28;;
81934;SDS011;71405;47.674;-2.050;2023-07-31T00:16:19;5.63;;;3.97;;
81934;SDS011;71405;47.674;-2.050;2023-07-31T00:18:45;6.10;;;3.90;;
81934;SDS011;71405;47.674;-2.050;2023-07-31T00:21:11;6.10;;;4.10;;
81934;SDS011;71405;47.674;-2.050;2023-07-31T00:23:36;6.65;;;4.10;;
81934;SDS011;71405;47.674;-2.050;2023-07-31T00:26:02;6.15;;;3.97;;
81934;SDS011;71405;47.674;-2.050;2023-07-31T00:28:27;7.00;;;3.90;;
81934;SDS011;71405;47.674;-2.050;2023-07-31T00:30:53;6.45;;;4.05;;
81934;SDS011;71405;47.674;-2.050;2023-07-31T00:33:19;6.63;;;4.15;;
81934;SDS011;71405;47.674;-2.050;2023-07-31T00:35:45;6.80;;;4.05;;
81934;SDS011;71405;47.674;-2.050;2023-07-31T00:38:11;5.35;;;3.50;;
81934;SDS011;71405;47.674;-2.050;2023-07-31T00:40:37;5.68;;;3.80;;
81934;SDS011;71405;47.674;-2.050;2023-07-31T00:43:02;6.25;;;3.78;;
81934;SDS011;71405;47.674;-2.050;2023-07-31T00:45:28;5.82;;;3.65;;
81934;SDS011;71405;47.674;-2.050;2023-07-31T00:47:54;6.75;;;3.80;;
81934;SDS011;71405;47.674;-2.050;2023-07-31T00:50:22;6.10;;;3.67;;
81934;SDS011;71405;47.674;-2.050;2023-07-31T00:52:49;7.00;;;4.18;;
81934;SDS011;71405;47.674;-2.050;2023-07-31T00:55:15;6.10;;;3.92;;
81934;SDS011;71405;47.674;-2.050;2023-07-31T00:57:42;6.20;;;3.70;;
81934;SDS011;71405;47.674;-2.050;2023-07-31T01:00:08;6.80;;;3.80;;
81934;SDS011;71405;47.674;-2.050;2023-07-31T01:02:34;6.45;;;3.78;;
81934;SDS011;71405;47.674;-2.050;2023-07-31T01:05:01;5.65;;;3.65;;
81934;SDS011;71405;47.674;-2.050;2023-07-31T01:08:12;5.97;;;3.67;;
81934;SDS011;71405;47.674;-2.050;2023-07-31T01:10:20;5.97;;;3.53;;
81934;SDS011;71405;47.674;-2.050;2023-07-31T01:12:48;6.07;;;3.50;;
81934;SDS011;71405;47.674;-2.050;2023-07-31T01:15:16;6.07;;;3.53;;
81934;SDS011;71405;47.674;-2.050;2023-07-31T01:17:42;6.90;;;3.80;;
81934;SDS011;71405;47.674;-2.050;2023-07-31T01:20:13;6.20;;;3.60;;
81934;SDS011;71405;47.674;-2.050;2023-07-31T01:31:14;5.57;;;3.22;;
81934;SDS011;71405;47.674;-2.050;2023-07-31T01:33:43;6.13;;;3.33;;
81934;SDS011;71405;47.674;-2.050;2023-07-31T01:36:09;6.15;;;3.45;;
81934;SDS011;71405;47.674;-2.050;2023-07-31T01:38:35;6.97;;;3.30;;
81934;SDS011;71405;47.674;-2.050;2023-07-31T01:41:01;5.38;;;3.10;;
81934;SDS011;71405;47.674;-2.050;2023-07-31T01:43:26;6.25;;;3.33;;
81934;SDS011;71405;47.674;-2.050;2023-07-31T01:45:52;5.97;;;3.50;;
81934;SDS011;71405;47.674;-2.050;2023-07-31T01:48:18;5.60;;;3.20;;
81934;SDS011;71405;47.674;-2.050;2023-07-31T01:50:43;6.53;;;3.55;;
81934;SDS011;71405;47.674;-2.050;2023-07-31T01:53:09;6.07;;;3.40;;
81934;SDS011;71405;47.674;-2.050;2023-07-31T01:55:37;5.88;;;3.20;;
81934;SDS011;71405;47.674;-2.050;2023-07-31T01:58:02;6.40;;;3.65;;
81934;SDS011;71405;47.674;-2.050;2023-07-31T02:00:28;7.05;;;3.58;;
81934;SDS011;71405;47.674;-2.050;2023-07-31T02:02:54;5.88;;;3.60;;
81934;SDS011;71405;47.674;-2.050;2023-07-31T02:05:19;7.35;;;3.60;;
81934;SDS011;71405;47.674;-2.050;2023-07-31T02:07:45;6.35;;;3.40;;
81934;SDS011;71405;47.674;-2.050;2023-07-31T02:10:11;6.78;;;3.95;;
81934;SDS011;71405;47.674;-2.050;2023-07-31T02:12:36;5.72;;;3.20;;
81934;SDS011;71405;47.674;-2.050;2023-07-31T02:15:02;6.47;;;3.40;;
81934;SDS011;71405;47.674;-2.050;2023-07-31T02:17:28;6.10;;;3.15;;
81934;SDS011;71405;47.674;-2.050;2023-07-31T02:19:54;6.75;;;3.20;;
81934;SDS011;71405;47.674;-2.050;2023-07-31T02:22:20;5.10;;;3.17;;
81934;SDS011;71405;47.674;-2.050;2023-07-31T02:24:46;5.93;;;3.25;;
81934;SDS011;71405;47.674;-2.050;2023-07-31T02:27:11;6.90;;;3.88;;
81934;SDS011;71405;47.674;-2.050;2023-07-31T02:29:37;5.90;;;3.00;;
81934;SDS011;71405;47.674;-2.050;2023-07-31T02:32:03;6.22;;;3.50;;
81934;SDS011;71405;47.674;-2.050;2023-07-31T02:34:28;7.13;;;3.80;;
81934;SDS011;71405;47.674;-2.050;2023-07-31T02:36:54;6.07;;;3.40;;
81934;SDS011;71405;47.674;-2.050;2023-07-31T02:39:20;6.55;;;3.50;;
81934;SDS011;71405;47.674;-2.050;2023-07-31T02:41:46;6.53;;;3.53;;
81934;SDS011;71405;47.674;-2.050;2023-07-31T02:44:11;5.25;;;2.80;;
81934;SDS011;71405;47.674;-2.050;2023-07-31T02:46:39;6.10;;;3.30;;
81934;SDS011;71405;47.674;-2.050;2023-07-31T02:49:05;6.38;;;3.35;;
81934;SDS011;71405;47.674;-2.050;2023-07-31T02:51:31;6.45;;;3.40;;
81934;SDS011;71405;47.674;-2.050;2023-07-31T02:53:56;6.78;;;3.50;;
81934;SDS011;71405;47.674;-2.050;2023-07-31T02:56:22;6.90;;;3.20;;
81934;SDS011;71405;47.674;-2.050;2023-07-31T02:58:48;6.88;;;3.65;;
81934;SDS011;71405;47.674;-2.050;2023-07-31T03:01:13;5.70;;;3.13;;
81934;SDS011;71405;47.674;-2.050;2023-07-31T03:03:40;6.10;;;3.35;;
81934;SDS011;71405;47.674;-2.050;2023-07-31T03:06:07;6.28;;;3.20;;
81934;SDS011;71405;47.674;-2.050;2023-07-31T03:08:32;6.03;;;3.28;;
81934;SDS011;71405;47.674;-2.050;2023-07-31T03:10:58;6.63;;;3.30;;
81934;SDS011;71405;47.674;-2.050;2023-07-31T03:13:24;7.13;;;3.42;;
81934;SDS011;71405;47.674;-2.050;2023-07-31T03:15:49;7.00;;;3.60;;
81934;SDS011;71405;47.674;-2.050;2023-07-31T03:18:15;6.60;;;3.30;;
81934;SDS011;71405;47.674;-2.050;2023-07-31T03:20:44;6.50;;;3.20;;
81934;SDS011;71405;47.674;-2.050;2023-07-31T03:23:09;7.15;;;3.50;;
81934;SDS011;71405;47.674;-2.050;2023-07-31T03:25:35;6.32;;;3.55;;
81934;SDS011;71405;47.674;-2.050;2023-07-31T03:28:01;6.80;;;3.33;;
81934;SDS011;71405;47.674;-2.050;2023-07-31T03:30:27;6.38;;;3.25;;
81934;SDS011;71405;47.674;-2.050;2023-07-31T03:32:52;6.68;;;3.10;;
81934;SDS011;71405;47.674;-2.050;2023-07-31T03:35:18;7.30;;;3.60;;
81934;SDS011;71405;47.674;-2.050;2023-07-31T03:37:44;7.45;;;3.45;;
81934;SDS011;71405;47.674;-2.050;2023-07-31T03:40:10;7.30;;;3.60;;
81934;SDS011;71405;47.674;-2.050;2023-07-31T03:42:36;7.32;;;3.65;;
81934;SDS011;71405;47.674;-2.050;2023-07-31T03:45:01;6.32;;;3.30;;
81934;SDS011;71405;47.674;-2.050;2023-07-31T03:47:27;6.82;;;3.00;;
81934;SDS011;71405;47.674;-2.050;2023-07-31T03:49:53;6.15;;;3.00;;
81934;SDS011;71405;47.674;-2.050;2023-07-31T03:52:18;7.43;;;3.67;;
81934;SDS011;71405;47.674;-2.050;2023-07-31T03:54:44;6.80;;;3.55;;
81934;SDS011;71405;47.674;-2.050;2023-07-31T03:57:10;6.00;;;2.92;;
81934;SDS011;71405;47.674;-2.050;2023-07-31T03:59:36;6.22;;;3.28;;
81934;SDS011;71405;47.674;-2.050;2023-07-31T04:02:04;6.80;;;3.22;;
81934;SDS011;71405;47.674;-2.050;2023-07-31T04:04:29;7.03;;;3.63;;
81934;SDS011;71405;47.674;-2.050;2023-07-31T04:06:55;6.82;;;3.28;;
81934;SDS011;71405;47.674;-2.050;2023-07-31T04:09:21;6.28;;;3.28;;
81934;SDS011;71405;47.674;-2.050;2023-07-31T04:11:46;7.13;;;3.70;;
81934;SDS011;71405;47.674;-2.050;2023-07-31T04:14:12;6.68;;;3.20;;
81934;SDS011;71405;47.674;-2.050;2023-07-31T04:16:38;6.82;;;3.63;;
81934;SDS011;71405;47.674;-2.050;2023-07-31T04:19:03;6.82;;;3.40;;
81934;SDS011;71405;47.674;-2.050;2023-07-31T04:21:29;6.70;;;3.05;;
81934;SDS011;71405;47.674;-2.050;2023-07-31T04:23:55;6.38;;;3.45;;
81934;SDS011;71405;47.674;-2.050;2023-07-31T04:26:21;6.93;;;3.20;;
81934;SDS011;71405;47.674;-2.050;2023-07-31T04:28:47;8.38;;;3.75;;
81934;SDS011;71405;47.674;-2.050;2023-07-31T04:31:12;7.82;;;3.47;;
81934;SDS011;71405;47.674;-2.050;2023-07-31T04:33:38;6.45;;;3.22;;
81934;SDS011;71405;47.674;-2.050;2023-07-31T04:36:04;7.63;;;3.45;;
81934;SDS011;71405;47.674;-2.050;2023-07-31T04:38:30;6.38;;;2.92;;
81934;SDS011;71405;47.674;-2.050;2023-07-31T04:40:56;6.72;;;3.47;;
81934;SDS011;71405;47.674;-2.050;2023-07-31T04:43:21;7.53;;;3.25;;
81934;SDS011;71405;47.674;-2.050;2023-07-31T04:45:47;6.80;;;3.20;;
81934;SDS011;71405;47.674;-2.050;2023-07-31T04:48:13;7.93;;;3.78;;
81934;SDS011;71405;47.674;-2.050;2023-07-31T04:50:39;37.67;;;33.88;;
81934;SDS011;71405;47.674;-2.050;2023-07-31T04:53:05;22.60;;;20.33;;
81934;SDS011;71405;47.674;-2.050;2023-07-31T04:55:31;21.85;;;18.98;;
81934;SDS011;71405;47.674;-2.050;2023-07-31T04:57:57;13.82;;;10.38;;
81934;SDS011;71405;47.674;-2.050;2023-07-31T05:00:26;17.80;;;14.40;;
81934;SDS011;71405;47.674;-2.050;2023-07-31T05:02:52;14.50;;;10.88;;
81934;SDS011;71405;47.674;-2.050;2023-07-31T05:05:17;17.50;;;15.52;;
81934;SDS011;71405;47.674;-2.050;2023-07-31T05:07:43;15.55;;;13.60;;
81934;SDS011;71405;47.674;-2.050;2023-07-31T05:10:09;15.68;;;13.00;;
81934;SDS011;71405;47.674;-2.050;2023-07-31T05:12:34;15.65;;;12.82;;
81934;SDS011;71405;47.674;-2.050;2023-07-31T05:15:00;14.85;;;11.93;;
81934;SDS011;71405;47.674;-2.050;2023-07-31T05:17:25;16.65;;;12.52;;
81934;SDS011;71405;47.674;-2.050;2023-07-31T05:19:51;14.13;;;11.45;;
81934;SDS011;71405;47.674;-2.050;2023-07-31T05:22:17;16.45;;;11.82;;
81934;SDS011;71405;47.674;-2.050;2023-07-31T05:24:42;15.98;;;12.00;;
81934;SDS011;71405;47.674;-2.050;2023-07-31T05:27:08;15.45;;;11.30;;
81934;SDS011;71405;47.674;-2.050;2023-07-31T05:29:34;13.82;;;11.15;;
81934;SDS011;71405;47.674;-2.050;2023-07-31T05:32:00;14.65;;;11.32;;
81934;SDS011;71405;47.674;-2.050;2023-07-31T05:34:26;14.73;;;10.52;;
81934;SDS011;71405;47.674;-2.050;2023-07-31T05:36:52;24.35;;;21.52;;
81934;SDS011;71405;47.674;-2.050;2023-07-31T05:39:17;47.35;;;42.83;;
81934;SDS011;71405;47.674;-2.050;2023-07-31T05:41:44;31.55;;;28.13;;
81934;SDS011;71405;47.674;-2.050;2023-07-31T05:44:10;37.13;;;32.40;;
81934;SDS011;71405;47.674;-2.050;2023-07-31T05:46:36;24.58;;;21.95;;
81934;SDS011;71405;47.674;-2.050;2023-07-31T05:49:02;24.75;;;22.05;;
81934;SDS011;71405;47.674;-2.050;2023-07-31T05:51:27;24.23;;;21.67;;
81934;SDS011;71405;47.674;-2.050;2023-07-31T05:53:53;40.05;;;36.10;;
81934;SDS011;71405;47.674;-2.050;2023-07-31T05:56:19;34.22;;;28.52;;
81934;SDS011;71405;47.674;-2.050;2023-07-31T05:58:45;35.03;;;31.65;;
81934;SDS011;71405;47.674;-2.050;2023-07-31T06:01:10;30.88;;;27.80;;
81934;SDS011;71405;47.674;-2.050;2023-07-31T06:03:36;31.63;;;28.42;;
81934;SDS011;71405;47.674;-2.050;2023-07-31T06:06:01;29.55;;;26.58;;
81934;SDS011;71405;47.674;-2.050;2023-07-31T06:08:27;30.02;;;27.02;;
81934;SDS011;71405;47.674;-2.050;2023-07-31T06:10:53;27.25;;;24.67;;
81934;SDS011;71405;47.674;-2.050;2023-07-31T06:13:18;28.42;;;24.60;;
81934;SDS011;71405;47.674;-2.050;2023-07-31T06:15:44;28.17;;;25.23;;
81934;SDS011;71405;47.674;-2.050;2023-07-31T06:18:10;27.88;;;23.90;;
81934;SDS011;71405;47.674;-2.050;2023-07-31T06:20:35;25.05;;;21.80;;
81934;SDS011;71405;47.674;-2.050;2023-07-31T06:23:01;24.70;;;21.45;;
81934;SDS011;71405;47.674;-2.050;2023-07-31T06:25:28;23.65;;;20.95;;
81934;SDS011;71405;47.674;-2.050;2023-07-31T06:27:54;22.23;;;19.77;;
81934;SDS011;71405;47.674;-2.050;2023-07-31T06:30:20;26.13;;;20.63;;
81934;SDS011;71405;47.674;-2.050;2023-07-31T06:32:45;23.98;;;18.65;;
81934;SDS011;71405;47.674;-2.050;2023-07-31T06:35:11;20.65;;;17.65;;
81934;SDS011;71405;47.674;-2.050;2023-07-31T06:37:36;18.58;;;16.48;;
81934;SDS011;71405;47.674;-2.050;2023-07-31T06:40:05;20.67;;;16.38;;
81934;SDS011;71405;47.674;-2.050;2023-07-31T06:42:33;19.95;;;16.70;;
81934;SDS011;71405;47.674;-2.050;2023-07-31T06:45:00;19.60;;;16.58;;
81934;SDS011;71405;47.674;-2.050;2023-07-31T06:47:26;20.40;;;16.55;;
81934;SDS011;71405;47.674;-2.050;2023-07-31T06:49:52;21.02;;;15.90;;
81934;SDS011;71405;47.674;-2.050;2023-07-31T06:52:17;19.33;;;15.80;;
81934;SDS011;71405;47.674;-2.050;2023-07-31T06:54:44;18.90;;;15.52;;
81934;SDS011;71405;47.674;-2.050;2023-07-31T06:57:09;16.85;;;14.68;;
81934;SDS011;71405;47.674;-2.050;2023-07-31T06:59:35;16.33;;;14.23;;
81934;SDS011;71405;47.674;-2.050;2023-07-31T07:02:01;16.23;;;13.80;;
81934;SDS011;71405;47.674;-2.050;2023-07-31T07:04:26;17.23;;;13.55;;
81934;SDS011;71405;47.674;-2.050;2023-07-31T07:06:52;15.30;;;11.80;;
81934;SDS011;71405;47.674;-2.050;2023-07-31T07:09:17;14.43;;;11.93;;
81934;SDS011;71405;47.674;-2.050;2023-07-31T07:11:43;14.65;;;11.55;;
81934;SDS011;71405;47.674;-2.050;2023-07-31T07:14:09;13.43;;;9.93;;
81934;SDS011;71405;47.674;-2.050;2023-07-31T07:16:35;12.50;;;10.07;;
81934;SDS011;71405;47.674;-2.050;2023-07-31T07:19:00;12.63;;;9.40;;
81934;SDS011;71405;47.674;-2.050;2023-07-31T07:21:26;12.05;;;9.15;;
81934;SDS011;71405;47.674;-2.050;2023-07-31T07:23:52;10.88;;;8.70;;
81934;SDS011;71405;47.674;-2.050;2023-07-31T07:26:17;10.82;;;8.40;;
81934;SDS011;71405;47.674;-2.050;2023-07-31T07:28:43;10.57;;;8.05;;
81934;SDS011;71405;47.674;-2.050;2023-07-31T07:31:09;9.40;;;7.38;;
81934;SDS011;71405;47.674;-2.050;2023-07-31T07:33:34;10.10;;;7.63;;
81934;SDS011;71405;47.674;-2.050;2023-07-31T07:36:01;8.50;;;6.72;;
81934;SDS011;71405;47.674;-2.050;2023-07-31T07:38:27;8.93;;;6.45;;
81934;SDS011;71405;47.674;-2.050;2023-07-31T07:40:53;8.32;;;6.20;;
81934;SDS011;71405;47.674;-2.050;2023-07-31T07:43:19;8.18;;;5.88;;
81934;SDS011;71405;47.674;-2.050;2023-07-31T07:45:44;7.82;;;5.65;;
81934;SDS011;71405;47.674;-2.050;2023-07-31T07:48:10;7.82;;;5.10;;
81934;SDS011;71405;47.674;-2.050;2023-07-31T07:50:38;7.88;;;5.07;;
81934;SDS011;71405;47.674;-2.050;2023-07-31T07:53:03;7.78;;;4.85;;
81934;SDS011;71405;47.674;-2.050;2023-07-31T07:55:29;7.55;;;4.47;;
81934;SDS011;71405;47.674;-2.050;2023-07-31T07:57:55;7.05;;;4.82;;
81934;SDS011;71405;47.674;-2.050;2023-07-31T08:00:20;7.03;;;4.70;;
81934;SDS011;71405;47.674;-2.050;2023-07-31T08:02:46;7.00;;;4.55;;
81934;SDS011;71405;47.674;-2.050;2023-07-31T08:05:12;7.68;;;4.45;;
81934;SDS011;71405;47.674;-2.050;2023-07-31T08:07:38;6.07;;;4.10;;
81934;SDS011;71405;47.674;-2.050;2023-07-31T08:10:03;6.72;;;4.35;;
81934;SDS011;71405;47.674;-2.050;2023-07-31T08:12:29;6.43;;;4.07;;
81934;SDS011;71405;47.674;-2.050;2023-07-31T08:14:55;5.57;;;3.38;;
81934;SDS011;71405;47.674;-2.050;2023-07-31T08:17:21;6.35;;;3.60;;
81934;SDS011;71405;47.674;-2.050;2023-07-31T08:19:46;5.65;;;3.40;;
81934;SDS011;71405;47.674;-2.050;2023-07-31T08:22:12;5.03;;;3.25;;
81934;SDS011;71405;47.674;-2.050;2023-07-31T08:24:37;5.47;;;3.30;;
81934;SDS011;71405;47.674;-2.050;2023-07-31T08:27:03;4.80;;;3.00;;
81934;SDS011;71405;47.674;-2.050;2023-07-31T08:29:31;5.40;;;3.17;;
81934;SDS011;71405;47.674;-2.050;2023-07-31T08:31:57;4.68;;;2.97;;
81934;SDS011;71405;47.674;-2.050;2023-07-31T08:34:22;4.93;;;2.90;;
81934;SDS011;71405;47.674;-2.050;2023-07-31T08:36:48;4.78;;;2.90;;
81934;SDS011;71405;47.674;-2.050;2023-07-31T08:39:13;5.03;;;3.00;;
81934;SDS011;71405;47.674;-2.050;2023-07-31T08:41:39;4.07;;;2.70;;
81934;SDS011;71405;47.674;-2.050;2023-07-31T08:44:05;5.07;;;2.80;;
81934;SDS011;71405;47.674;-2.050;2023-07-31T08:46:32;3.70;;;2.50;;
81934;SDS011;71405;47.674;-2.050;2023-07-31T08:48:59;4.07;;;2.53;;
81934;SDS011;71405;47.674;-2.050;2023-07-31T08:51:26;3.92;;;2.50;;
81934;SDS011;71405;47.674;-2.050;2023-07-31T08:53:52;4.85;;;2.40;;
81934;SDS011;71405;47.674;-2.050;2023-07-31T08:56:18;3.97;;;2.45;;
81934;SDS011;71405;47.674;-2.050;2023-07-31T08:58:44;3.88;;;2.30;;
81934;SDS011;71405;47.674;-2.050;2023-07-31T09:01:12;3.83;;;2.38;;
81934;SDS011;71405;47.674;-2.050;2023-07-31T09:03:38;3.53;;;2.30;;
81934;SDS011;71405;47.674;-2.050;2023-07-31T09:06:05;3.53;;;2.22;;
81934;SDS011;71405;47.674;-2.050;2023-07-31T09:08:32;2.55;;;2.08;;
81934;SDS011;71405;47.674;-2.050;2023-07-31T09:10:59;3.08;;;2.20;;
81934;SDS011;71405;47.674;-2.050;2023-07-31T09:13:27;3.72;;;2.17;;
81934;SDS011;71405;47.674;-2.050;2023-07-31T09:15:54;3.03;;;2.05;;
81934;SDS011;71405;47.674;-2.050;2023-07-31T09:18:20;2.45;;;1.83;;
81934;SDS011;71405;47.674;-2.050;2023-07-31T09:21:00;2.80;;;1.90;;
81934;SDS011;71405;47.674;-2.050;2023-07-31T09:24:07;2.03;;;1.77;;
81934;SDS011;71405;47.674;-2.050;2023-07-31T09:26:29;2.83;;;1.70;;
81934;SDS011;71405;47.674;-2.050;2023-07-31T09:28:57;2.22;;;1.80;;
81934;SDS011;71405;47.674;-2.050;2023-07-31T09:34:18;2.50;;;1.83;;
81934;SDS011;71405;47.674;-2.050;2023-07-31T09:36:48;2.10;;;1.70;;
81934;SDS011;71405;47.674;-2.050;2023-07-31T09:39:15;2.50;;;1.63;;
81934;SDS011;71405;47.674;-2.050;2023-07-31T09:41:43;2.35;;;1.70;;
81934;SDS011;71405;47.674;-2.050;2023-07-31T09:44:10;1.85;;;1.58;;
81934;SDS011;71405;47.674;-2.050;2023-07-31T09:46:35;3.00;;;1.90;;
81934;SDS011;71405;47.674;-2.050;2023-07-31T09:51:32;2.38;;;1.63;;
81934;SDS011;71405;47.674;-2.050;2023-07-31T09:54:03;2.45;;;1.65;;
81934;SDS011;71405;47.674;-2.050;2023-07-31T09:56:38;1.58;;;1.45;;
81934;SDS011;71405;47.674;-2.050;2023-07-31T09:59:17;1.58;;;1.40;;
81934;SDS011;71405;47.674;-2.050;2023-07-31T10:01:44;2.37;;;1.50;;
81934;SDS011;71405;47.674;-2.050;2023-07-31T10:04:11;10.15;;;9.25;;
81934;SDS011;71405;47.674;-2.050;2023-07-31T10:06:38;6.05;;;3.42;;
81934;SDS011;71405;47.674;-2.050;2023-07-31T10:09:05;4.53;;;3.30;;
81934;SDS011;71405;47.674;-2.050;2023-07-31T10:11:40;3.78;;;2.50;;
81934;SDS011;71405;47.674;-2.050;2023-07-31T10:14:09;4.28;;;2.35;;
81934;SDS011;71405;47.674;-2.050;2023-07-31T10:16:37;5.25;;;2.40;;
81934;SDS011;71405;47.674;-2.050;2023-07-31T10:19:04;4.15;;;2.30;;
81934;SDS011;71405;47.674;-2.050;2023-07-31T10:21:31;4.53;;;2.10;;
81934;SDS011;71405;47.674;-2.050;2023-07-31T10:24:00;4.85;;;2.10;;
81934;SDS011;71405;47.674;-2.050;2023-07-31T10:26:31;4.40;;;1.80;;
81934;SDS011;71405;47.674;-2.050;2023-07-31T10:28:58;4.88;;;2.30;;
81934;SDS011;71405;47.674;-2.050;2023-07-31T10:31:25;5.63;;;2.13;;
81934;SDS011;71405;47.674;-2.050;2023-07-31T10:33:52;4.32;;;1.90;;
81934;SDS011;71405;47.674;-2.050;2023-07-31T10:36:19;5.95;;;2.95;;
81934;SDS011;71405;47.674;-2.050;2023-07-31T10:38:45;31.67;;;29.15;;
81934;SDS011;71405;47.674;-2.050;2023-07-31T10:41:14;27.30;;;25.13;;
81934;SDS011;71405;47.674;-2.050;2023-07-31T10:43:40;23.98;;;21.98;;
81934;SDS011;71405;47.674;-2.050;2023-07-31T10:46:12;20.65;;;18.85;;
81934;SDS011;71405;47.674;-2.050;2023-07-31T10:48:39;14.23;;;12.73;;
81934;SDS011;71405;47.674;-2.050;2023-07-31T10:51:07;9.25;;;7.45;;
81934;SDS011;71405;47.674;-2.050;2023-07-31T10:53:34;8.80;;;6.43;;
81934;SDS011;71405;47.674;-2.050;2023-07-31T10:58:30;8.50;;;5.32;;
81934;SDS011;71405;47.674;-2.050;2023-07-31T11:01:01;7.05;;;3.70;;
81934;SDS011;71405;47.674;-2.050;2023-07-31T11:03:45;6.28;;;3.75;;
81934;SDS011;71405;47.674;-2.050;2023-07-31T11:06:13;5.70;;;3.10;;
81934;SDS011;71405;47.674;-2.050;2023-07-31T11:08:44;10.68;;;9.68;;
81934;SDS011;71405;47.674;-2.050;2023-07-31T11:11:12;8.63;;;6.85;;
81934;SDS011;71405;47.674;-2.050;2023-07-31T11:13:46;7.75;;;5.88;;
81934;SDS011;71405;47.674;-2.050;2023-07-31T11:16:17;6.80;;;4.03;;
81934;SDS011;71405;47.674;-2.050;2023-07-31T11:18:50;6.53;;;3.30;;
81934;SDS011;71405;47.674;-2.050;2023-07-31T11:21:17;5.10;;;3.22;;
81934;SDS011;71405;47.674;-2.050;2023-07-31T11:23:47;10.70;;;9.70;;
81934;SDS011;71405;47.674;-2.050;2023-07-31T11:26:14;9.07;;;8.00;;
81934;SDS011;71405;47.674;-2.050;2023-07-31T11:28:40;7.78;;;6.65;;
81934;SDS011;71405;47.674;-2.050;2023-07-31T11:31:09;7.10;;;5.95;;
81934;SDS011;71405;47.674;-2.050;2023-07-31T11:33:35;7.93;;;6.32;;
81934;SDS011;71405;47.674;-2.050;2023-07-31T11:36:02;7.85;;;6.30;;
81934;SDS011;71405;47.674;-2.050;2023-07-31T11:38:28;7.28;;;6.28;;
81934;SDS011;71405;47.674;-2.050;2023-07-31T11:40:59;6.95;;;5.72;;
81934;SDS011;71405;47.674;-2.050;2023-07-31T11:43:27;7.93;;;5.95;;
81934;SDS011;71405;47.674;-2.050;2023-07-31T11:45:57;7.38;;;5.97;;
81934;SDS011;71405;47.674;-2.050;2023-07-31T11:50:57;6.77;;;5.20;;
81934;SDS011;71405;47.674;-2.050;2023-07-31T11:53:26;6.93;;;4.85;;
81934;SDS011;71405;47.674;-2.050;2023-07-31T11:56:17;6.70;;;4.70;;
81934;SDS011;71405;47.674;-2.050;2023-07-31T11:58:54;6.32;;;4.72;;
81934;SDS011;71405;47.674;-2.050;2023-07-31T12:01:22;6.65;;;4.68;;
81934;SDS011;71405;47.674;-2.050;2023-07-31T12:03:49;6.05;;;4.45;;
81934;SDS011;71405;47.674;-2.050;2023-07-31T12:06:16;6.80;;;4.50;;
81934;SDS011;71405;47.674;-2.050;2023-07-31T12:08:41;6.38;;;4.70;;
81934;SDS011;71405;47.674;-2.050;2023-07-31T12:11:08;6.55;;;4.65;;
81934;SDS011;71405;47.674;-2.050;2023-07-31T12:13:34;6.22;;;4.78;;
81934;SDS011;71405;47.674;-2.050;2023-07-31T12:16:01;6.63;;;4.18;;
81934;SDS011;71405;47.674;-2.050;2023-07-31T12:18:29;5.20;;;4.10;;
81934;SDS011;71405;47.674;-2.050;2023-07-31T12:23:26;5.85;;;3.92;;
81934;SDS011;71405;47.674;-2.050;2023-07-31T12:28:41;5.43;;;4.00;;
81934;SDS011;71405;47.674;-2.050;2023-07-31T12:31:08;5.47;;;3.75;;
81934;SDS011;71405;47.674;-2.050;2023-07-31T12:33:36;5.47;;;3.90;;
81934;SDS011;71405;47.674;-2.050;2023-07-31T12:36:04;4.95;;;3.63;;
81934;SDS011;71405;47.674;-2.050;2023-07-31T12:38:34;5.60;;;3.88;;
81934;SDS011;71405;47.674;-2.050;2023-07-31T12:41:00;5.68;;;3.83;;
81934;SDS011;71405;47.674;-2.050;2023-07-31T12:43:26;4.53;;;3.50;;
81934;SDS011;71405;47.674;-2.050;2023-07-31T12:45:53;4.82;;;3.47;;
81934;SDS011;71405;47.674;-2.050;2023-07-31T12:48:19;6.07;;;3.70;;
81934;SDS011;71405;47.674;-2.050;2023-07-31T12:50:45;4.88;;;3.42;;
81934;SDS011;71405;47.674;-2.050;2023-07-31T12:53:11;5.28;;;3.50;;
81934;SDS011;71405;47.674;-2.050;2023-07-31T12:55:36;4.40;;;3.28;;
81934;SDS011;71405;47.674;-2.050;2023-07-31T12:58:02;4.75;;;3.20;;
81934;SDS011;71405;47.674;-2.050;2023-07-31T13:00:28;4.60;;;3.00;;
81934;SDS011;71405;47.674;-2.050;2023-07-31T13:02:54;5.25;;;3.38;;
81934;SDS011;71405;47.674;-2.050;2023-07-31T13:05:20;4.70;;;3.50;;
81934;SDS011;71405;47.674;-2.050;2023-07-31T13:07:46;4.95;;;3.30;;
81934;SDS011;71405;47.674;-2.050;2023-07-31T13:10:12;4.18;;;3.10;;
81934;SDS011;71405;47.674;-2.050;2023-07-31T13:12:38;4.75;;;3.20;;
81934;SDS011;71405;47.674;-2.050;2023-07-31T13:15:04;4.80;;;3.40;;
81934;SDS011;71405;47.674;-2.050;2023-07-31T13:17:31;4.43;;;3.00;;
81934;SDS011;71405;47.674;-2.050;2023-07-31T13:19:57;4.00;;;2.83;;
81934;SDS011;71405;47.674;-2.050;2023-07-31T13:22:23;3.85;;;2.75;;
81934;SDS011;71405;47.674;-2.050;2023-07-31T13:24:48;3.53;;;2.78;;
81934;SDS011;71405;47.674;-2.050;2023-07-31T13:27:14;4.60;;;3.00;;
81934;SDS011;71405;47.674;-2.050;2023-07-31T13:29:45;3.55;;;2.80;;
81934;SDS011;71405;47.674;-2.050;2023-07-31T13:32:10;4.32;;;3.00;;
81934;SDS011;71405;47.674;-2.050;2023-07-31T13:34:36;4.63;;;3.20;;
81934;SDS011;71405;47.674;-2.050;2023-07-31T13:37:02;4.90;;;3.05;;
81934;SDS011;71405;47.674;-2.050;2023-07-31T13:39:28;4.05;;;2.80;;
81934;SDS011;71405;47.674;-2.050;2023-07-31T13:41:53;4.68;;;3.10;;
81934;SDS011;71405;47.674;-2.050;2023-07-31T13:44:20;4.78;;;3.10;;
81934;SDS011;71405;47.674;-2.050;2023-07-31T13:46:45;4.80;;;3.00;;
81934;SDS011;71405;47.674;-2.050;2023-07-31T13:49:11;5.68;;;3.17;;
81934;SDS011;71405;47.674;-2.050;2023-07-31T13:51:36;4.47;;;3.10;;
81934;SDS011;71405;47.674;-2.050;2023-07-31T13:54:04;4.25;;;2.75;;
81934;SDS011;71405;47.674;-2.050;2023-07-31T13:56:31;4.28;;;2.83;;
81934;SDS011;71405;47.674;-2.050;2023-07-31T13:58:57;4.38;;;2.80;;
81934;SDS011;71405;47.674;-2.050;2023-07-31T14:01:22;3.80;;;2.55;;
81934;SDS011;71405;47.674;-2.050;2023-07-31T14:03:49;4.70;;;2.88;;
81934;SDS011;71405;47.674;-2.050;2023-07-31T14:06:14;4.13;;;2.83;;
81934;SDS011;71405;47.674;-2.050;2023-07-31T14:08:40;4.65;;;2.70;;
81934;SDS011;71405;47.674;-2.050;2023-07-31T14:11:06;3.95;;;2.47;;
81934;SDS011;71405;47.674;-2.050;2023-07-31T14:13:31;3.72;;;2.60;;
81934;SDS011;71405;47.674;-2.050;2023-07-31T14:15:57;3.92;;;2.55;;
81934;SDS011;71405;47.674;-2.050;2023-07-31T14:18:23;3.50;;;2.50;;
81934;SDS011;71405;47.674;-2.050;2023-07-31T14:20:48;4.30;;;2.55;;
81934;SDS011;71405;47.674;-2.050;2023-07-31T14:23:14;4.68;;;2.88;;
81934;SDS011;71405;47.674;-2.050;2023-07-31T14:25:40;3.90;;;2.40;;
81934;SDS011;71405;47.674;-2.050;2023-07-31T14:28:06;2.92;;;2.35;;
81934;SDS011;71405;47.674;-2.050;2023-07-31T14:30:32;4.40;;;2.67;;
81934;SDS011;71405;47.674;-2.050;2023-07-31T14:32:57;4.22;;;2.58;;
81934;SDS011;71405;47.674;-2.050;2023-07-31T14:35:25;3.80;;;2.33;;
81934;SDS011;71405;47.674;-2.050;2023-07-31T14:37:51;3.63;;;2.70;;
81934;SDS011;71405;47.674;-2.050;2023-07-31T14:40:16;3.85;;;2.60;;
81934;SDS011;71405;47.674;-2.050;2023-07-31T14:42:42;4.53;;;2.70;;
81934;SDS011;71405;47.674;-2.050;2023-07-31T14:45:08;3.97;;;2.60;;
81934;SDS011;71405;47.674;-2.050;2023-07-31T14:47:35;4.30;;;2.50;;
81934;SDS011;71405;47.674;-2.050;2023-07-31T14:50:01;4.00;;;2.40;;